Time;durP1;ratioP1;P1;durP2;ratioP2;P2;SDS_P1;SDS_P2;PMS_P1;PMS_P2;Temp;Humidity;BMP_temperature;BMP_pressure;BME280_temperature;BME280_humidity;BME280_pressure;Samples;Min_cycle;Max_cycle;Signal;HPM_P1;HPM_P2
2022/02/27 00:00:57;;;;;;;27.87;18.65;;;;;;;0.27;100.00;101926.30;1796368;78;21035;-84
2022/02/27 00:03:24;;;;;;;28.65;17.37;;;;;;;0.26;100.00;101940.39;1776480;79;21004;-85
2022/02/27 00:05:51;;;;;;;27.27;16.77;;;;;;;0.25;100.00;101939.55;1812677;78;21145;-84
2022/02/27 00:08:18;;;;;;;20.52;14.30;;;;;;;0.24;100.00;101944.70;1807198;78;21042;-84
2022/02/27 00:10:45;;;;;;;22.80;14.45;;;;;;;0.23;100.00;101951.52;1775675;79;21538;-83
2022/02/27 00:13:13;;;;;;;20.25;13.95;;;;;;;0.23;100.00;101946.40;1807343;79;21543;-83
2022/02/27 00:15:41;;;;;;;24.20;13.32;;;;;;;0.25;100.00;101948.94;1772568;79;21011;-85
2022/02/27 00:18:08;;;;;;;22.17;14.60;;;;;;;0.24;100.00;101948.10;1777773;79;21488;-83
2022/02/27 00:20:35;;;;;;;19.85;12.80;;;;;;;0.25;100.00;101945.09;1813882;79;21014;-83
2022/02/27 00:23:02;;;;;;;21.68;12.55;;;;;;;0.24;100.00;101940.86;1779431;79;21026;-83
2022/02/27 00:25:31;;;;;;;17.85;11.75;;;;;;;0.22;100.00;101938.30;1813184;79;21400;-84
2022/02/27 00:27:59;;;;;;;19.57;11.22;;;;;;;0.20;100.00;101948.15;1811477;78;21029;-83
2022/02/27 00:30:28;;;;;;;20.23;11.93;;;;;;;0.15;100.00;101948.19;1818349;78;21189;-83
2022/02/27 00:32:55;;;;;;;16.40;11.70;;;;;;;0.12;100.00;101943.13;1767078;79;21551;-84
2022/02/27 00:35:22;;;;;;;16.45;10.90;;;;;;;0.07;100.00;101955.10;1810798;78;21053;-83
2022/02/27 00:37:49;;;;;;;17.60;11.50;;;;;;;0.04;100.00;101958.99;1805050;79;21361;-84
2022/02/27 00:40:16;;;;;;;17.80;11.40;;;;;;;-0.02;100.00;101961.17;1775242;79;21034;-84
2022/02/27 00:42:43;;;;;;;18.85;11.30;;;;;;;-0.06;100.00;101959.08;1805208;78;21136;-85
2022/02/27 00:45:11;;;;;;;17.07;12.25;;;;;;;-0.09;100.00;101968.05;1775352;79;21030;-85
2022/02/27 00:47:38;;;;;;;16.40;10.63;;;;;;;-0.13;100.00;101966.40;1778460;79;21022;-84
2022/02/27 00:50:13;;;;;;;17.37;12.20;;;;;;;-0.17;100.00;101969.42;1809589;77;21049;-84
2022/02/27 00:52:41;;;;;;;19.77;12.82;;;;;;;-0.19;100.00;101970.27;1768883;80;20993;-84
2022/02/27 00:55:10;;;;;;;16.90;12.15;;;;;;;-0.22;100.00;101966.03;1764663;79;21087;-83
2022/02/27 00:57:42;;;;;;;24.37;14.05;;;;;;;-0.24;100.00;101966.91;1775582;79;21625;-83
2022/02/27 01:00:09;;;;;;;23.02;13.18;;;;;;;-0.26;100.00;101973.74;1797095;78;21600;-83
2022/02/27 01:02:36;;;;;;;21.23;12.85;;;;;;;-0.27;100.00;101976.75;1750512;81;21005;-84
2022/02/27 01:05:04;;;;;;;19.15;12.23;;;;;;;-0.27;100.00;101972.04;1772173;79;21024;-84
2022/02/27 01:07:31;;;;;;;18.02;12.33;;;;;;;-0.28;100.00;101964.80;1725422;81;20974;-83
2022/02/27 01:09:58;;;;;;;17.87;12.47;;;;;;;-0.27;100.00;101960.52;1752111;81;21304;-83
2022/02/27 01:12:25;;;;;;;18.23;12.63;;;;;;;-0.27;100.00;101966.92;1733503;81;21009;-83
2022/02/27 01:14:52;;;;;;;19.55;12.90;;;;;;;-0.28;100.00;101966.53;1749819;81;21069;-83
2022/02/27 01:17:19;;;;;;;19.52;12.78;;;;;;;-0.30;100.00;101963.95;1754571;79;21108;-84
2022/02/27 01:19:47;;;;;;;19.57;13.45;;;;;;;-0.32;100.00;101964.39;1734478;81;21731;-83
2022/02/27 01:22:13;;;;;;;19.15;12.40;;;;;;;-0.32;100.00;101978.06;1702653;82;21040;-83
2022/02/27 01:24:41;;;;;;;21.68;13.60;;;;;;;-0.35;100.00;101969.11;1740125;81;21054;-83
2022/02/27 01:27:08;;;;;;;20.17;14.20;;;;;;;-0.36;100.00;101978.09;1763902;81;21130;-84
2022/02/27 01:29:35;;;;;;;20.17;13.75;;;;;;;-0.39;100.00;101975.13;1738058;79;21355;-83
2022/02/27 01:32:03;;;;;;;21.42;14.43;;;;;;;-0.42;100.00;101979.42;1728644;81;21120;-84
2022/02/27 01:34:32;;;;;;;24.55;15.05;;;;;;;-0.46;100.00;101975.17;1766507;79;21615;-83
2022/02/27 01:37:00;;;;;;;23.57;14.30;;;;;;;-0.51;100.00;101977.77;1763807;81;21043;-84
2022/02/27 01:39:26;;;;;;;23.32;13.68;;;;;;;-0.55;100.00;101981.22;1763791;81;21092;-84
2022/02/27 01:41:53;;;;;;;20.82;13.43;;;;;;;-0.60;100.00;101984.25;1733886;81;21598;-84
2022/02/27 01:44:21;;;;;;;20.08;13.70;;;;;;;-0.65;100.00;101991.95;1769260;79;21511;-83
2022/02/27 01:47:00;;;;;;;23.42;14.03;;;;;;;-0.70;100.00;101992.39;1733715;81;21160;-82
2022/02/27 01:49:30;;;;;;;23.38;14.25;;;;;;;-0.76;100.00;101994.55;1764089;80;21054;-83
2022/02/27 01:51:57;;;;;;;21.70;13.93;;;;;;;-0.80;100.00;101995.44;1735185;81;21121;-83
2022/02/27 01:54:24;;;;;;;22.48;14.05;;;;;;;-0.83;100.00;102000.56;1764165;81;21765;-83
2022/02/27 01:56:51;;;;;;;23.57;14.87;;;;;;;-0.88;100.00;102006.14;1733672;81;21842;-83
2022/02/27 01:59:18;;;;;;;22.75;14.63;;;;;;;-0.93;100.00;102011.27;1733786;81;21042;-83
2022/02/27 02:01:45;;;;;;;22.02;13.30;;;;;;;-0.95;100.00;102012.98;1733224;81;21085;-83
2022/02/27 02:04:12;;;;;;;20.00;11.90;;;;;;;-0.98;100.00;102009.17;1763475;81;21019;-83
2022/02/27 02:06:42;;;;;;;21.65;14.30;;;;;;;-1.00;100.00;102014.27;1754919;81;21127;-84
2022/02/27 02:09:09;;;;;;;20.97;12.58;;;;;;;-1.01;100.00;102010.05;1735710;81;21101;-84
2022/02/27 02:11:39;;;;;;;18.77;12.20;;;;;;;-1.02;100.00;102011.30;1733733;81;21608;-84
2022/02/27 02:14:07;;;;;;;20.62;11.97;;;;;;;-1.05;100.00;102012.17;1729516;81;21092;-85
2022/02/27 02:16:46;;;;;;;23.70;14.00;;;;;;;-1.05;100.00;102015.17;1740854;81;21069;-84
2022/02/27 02:19:15;;;;;;;20.12;12.15;;;;;;;-1.06;100.00;102019.42;1730312;82;21135;-83
2022/02/27 02:21:46;;;;;;;20.02;13.05;;;;;;;-1.11;100.00;102017.32;1705638;82;21592;-83
2022/02/27 02:24:16;;;;;;;20.55;13.85;;;;;;;-1.14;100.00;102018.19;1746055;79;21056;-84
2022/02/27 02:26:45;;;;;;;19.60;12.37;;;;;;;-1.17;100.00;102017.35;1757360;81;21037;-84
2022/02/27 02:29:16;;;;;;;23.45;12.75;;;;;;;-1.22;100.00;102021.61;1765771;81;21621;-84
2022/02/27 02:31:45;;;;;;;25.17;12.47;;;;;;;-1.26;100.00;102025.88;1755841;81;21551;-83
2022/02/27 02:34:15;;;;;;;18.55;12.90;;;;;;;-1.28;100.00;102023.75;1756185;81;21826;-83
2022/02/27 02:36:45;;;;;;;20.88;12.30;;;;;;;-1.30;100.00;102031.44;1756227;81;21046;-84
2022/02/27 02:39:17;;;;;;;18.67;12.70;;;;;;;-1.29;100.00;102030.58;1747109;79;21128;-83
2022/02/27 02:41:44;;;;;;;17.30;11.90;;;;;;;-1.30;100.00;102029.31;1756289;81;21034;-85
2022/02/27 02:44:14;;;;;;;17.87;12.03;;;;;;;-1.30;100.00;102035.70;1774232;80;21028;-84
2022/02/27 02:46:43;;;;;;;19.20;12.35;;;;;;;-1.32;100.00;102034.85;1779824;79;21087;-84
2022/02/27 02:49:13;;;;;;;17.30;11.75;;;;;;;-1.35;100.00;102030.61;1814163;79;20955;-84
2022/02/27 02:51:42;;;;;;;21.70;12.18;;;;;;;-1.34;100.00;102039.98;1774567;79;21061;-84
2022/02/27 02:54:12;;;;;;;18.60;11.93;;;;;;;-1.33;100.00;102039.13;1772208;79;21655;-84
2022/02/27 02:56:41;;;;;;;15.95;11.10;;;;;;;-1.34;100.00;102044.22;1760203;80;21594;-84
2022/02/27 02:59:09;;;;;;;16.17;11.20;;;;;;;-1.36;100.00;102046.79;1760439;80;21798;-84
2022/02/27 03:01:36;;;;;;;16.37;11.15;;;;;;;-1.39;100.00;102046.78;1734323;80;20983;-84
2022/02/27 03:04:04;;;;;;;17.30;10.80;;;;;;;-1.43;100.00;102049.78;1759621;80;21746;-84
2022/02/27 03:06:33;;;;;;;19.48;11.63;;;;;;;-1.45;100.00;102051.91;1734580;81;21058;-84
2022/02/27 03:09:01;;;;;;;15.78;10.35;;;;;;;-1.49;100.00;102055.34;1766593;79;21585;-84
2022/02/27 03:11:29;;;;;;;15.50;10.88;;;;;;;-1.54;100.00;102048.97;1777470;78;21642;-84
2022/02/27 03:14:01;;;;;;;16.93;11.65;;;;;;;-1.55;100.00;102056.61;1788257;79;21056;-84
2022/02/27 03:16:29;;;;;;;14.98;10.40;;;;;;;-1.59;100.00;102055.77;1747233;80;20963;-84
2022/02/27 03:18:57;;;;;;;16.42;10.70;;;;;;;-1.62;100.00;102060.89;1777912;80;20969;-84
2022/02/27 03:21:24;;;;;;;16.67;10.28;;;;;;;-1.65;100.00;102059.20;1749060;80;21056;-83
2022/02/27 03:23:52;;;;;;;17.35;10.58;;;;;;;-1.64;100.00;102058.32;1794692;78;21095;-83
2022/02/27 03:26:20;;;;;;;13.22;9.88;;;;;;;-1.61;100.00;102060.88;1814031;79;20959;-84
2022/02/27 03:28:49;;;;;;;15.32;9.58;;;;;;;-1.56;100.00;102066.43;1813874;79;21571;-83
2022/02/27 03:31:16;;;;;;;15.75;9.75;;;;;;;-1.55;100.00;102064.27;1773276;80;21054;-84
2022/02/27 03:33:43;;;;;;;14.45;9.28;;;;;;;-1.55;100.00;102064.27;1787319;80;21067;-83
2022/02/27 03:36:10;;;;;;;14.25;9.18;;;;;;;-1.55;100.00;102065.14;1752301;80;21207;-83
2022/02/27 03:38:37;;;;;;;16.27;11.00;;;;;;;-1.50;100.00;102066.41;1787228;80;21520;-84
2022/02/27 03:41:04;;;;;;;13.32;10.00;;;;;;;-1.50;100.00;102074.92;1754618;79;21782;-83
2022/02/27 03:43:32;;;;;;;13.05;9.73;;;;;;;-1.55;100.00;102069.38;1781970;79;21590;-83
2022/02/27 03:45:59;;;;;;;15.10;10.03;;;;;;;-1.64;100.00;102065.98;1781938;80;20969;-84
2022/02/27 03:48:26;;;;;;;16.55;10.82;;;;;;;-1.77;100.00;102068.13;1746891;82;21132;-83
2022/02/27 03:50:53;;;;;;;14.90;9.93;;;;;;;-1.89;100.00;102068.98;1789213;78;21524;-84
2022/02/27 03:53:20;;;;;;;15.78;9.95;;;;;;;-1.98;100.00;102076.64;1807182;79;21515;-83
2022/02/27 03:55:47;;;;;;;15.08;9.38;;;;;;;-2.06;100.00;102076.64;1810962;78;20951;-85
2022/02/27 03:58:14;;;;;;;14.73;10.05;;;;;;;-2.13;100.00;102075.78;1785209;79;21111;-83
2022/02/27 04:00:40;;;;;;;15.15;9.48;;;;;;;-2.19;100.00;102079.60;1704958;82;21071;-84
2022/02/27 04:03:10;;;;;;;17.50;11.30;;;;;;;-2.22;100.00;102088.52;1707112;81;21009;-84
2022/02/27 04:05:37;;;;;;;15.85;10.80;;;;;;;-2.27;100.00;102086.39;1756031;81;21013;-83
2022/02/27 04:08:04;;;;;;;16.90;10.53;;;;;;;-2.32;100.00;102090.21;1712376;82;21082;-84
2022/02/27 04:10:33;;;;;;;15.00;10.03;;;;;;;-2.34;100.00;102092.33;1774257;79;21521;-83
2022/02/27 04:13:00;;;;;;;16.93;11.08;;;;;;;-2.35;100.00;102092.74;1793873;77;21022;-84
2022/02/27 04:15:29;;;;;;;16.10;10.72;;;;;;;-2.35;100.00;102095.30;1813661;79;21061;-84
2022/02/27 04:17:59;;;;;;;15.53;10.63;;;;;;;-2.37;100.00;102103.39;1813586;79;21417;-84
2022/02/27 04:20:27;;;;;;;14.55;9.73;;;;;;;-2.38;100.00;102102.52;1809857;79;21006;-82
2022/02/27 04:22:54;;;;;;;17.10;10.32;;;;;;;-2.36;100.00;102104.23;1810305;79;21152;-82
2022/02/27 04:25:21;;;;;;;15.05;10.18;;;;;;;-2.36;100.00;102106.34;1802708;78;21822;-85
2022/02/27 04:27:48;;;;;;;14.68;10.20;;;;;;;-2.35;100.00;102104.22;1796589;79;20985;-82
2022/02/27 04:30:15;;;;;;;13.75;9.58;;;;;;;-2.33;100.00;102102.53;1746912;81;21018;-83
2022/02/27 04:32:42;;;;;;;16.05;10.05;;;;;;;-2.30;100.00;102106.79;1774549;80;21002;-83
2022/02/27 04:35:14;;;;;;;17.02;10.70;;;;;;;-2.29;100.00;102107.22;1718128;80;21076;-82
2022/02/27 04:37:39;;;;;;;18.35;10.68;;;;;;;-2.32;100.00;102105.95;1799114;77;21295;-82
2022/02/27 04:40:07;;;;;;;14.18;10.18;;;;;;;-2.34;100.00;102104.66;1845330;77;21006;-84
2022/02/27 04:42:34;;;;;;;16.32;10.60;;;;;;;-2.37;100.00;102100.84;1781874;79;20981;-84
2022/02/27 04:45:01;;;;;;;16.87;9.88;;;;;;;-2.39;100.00;102100.81;1781395;80;21056;-83
2022/02/27 04:47:28;;;;;;;15.25;10.25;;;;;;;-2.39;100.00;102106.36;1749351;80;21073;-84
2022/02/27 04:49:55;;;;;;;15.13;9.95;;;;;;;-2.40;100.00;102107.20;1781695;80;22142;-83
2022/02/27 04:52:22;;;;;;;14.95;9.88;;;;;;;-2.41;100.00;102108.04;1749244;80;21009;-82
2022/02/27 04:54:49;;;;;;;14.63;9.70;;;;;;;-2.41;100.00;102111.87;1748957;80;21052;-84
2022/02/27 04:57:16;;;;;;;14.98;9.93;;;;;;;-2.40;100.00;102110.59;1749039;80;21033;-83
2022/02/27 04:59:48;;;;;;;16.30;10.18;;;;;;;-2.40;100.00;102114.41;1809912;77;21642;-84
2022/02/27 05:02:14;;;;;;;15.32;10.72;;;;;;;-2.38;100.00;102111.89;1803657;77;21082;-83
2022/02/27 05:04:41;;;;;;;16.77;10.45;;;;;;;-2.37;100.00;102112.32;1803059;77;21167;-84
2022/02/27 05:07:08;;;;;;;15.50;10.15;;;;;;;-2.35;100.00;102114.43;1748364;80;21096;-83
2022/02/27 05:09:35;;;;;;;16.00;10.13;;;;;;;-2.33;100.00;102107.64;1781283;80;21040;-83
2022/02/27 05:12:02;;;;;;;19.37;11.80;;;;;;;-2.28;100.00;102116.58;1781742;80;20910;-85
2022/02/27 05:14:30;;;;;;;17.30;10.85;;;;;;;-2.24;100.00;102119.16;1751058;79;21044;-84
2022/02/27 05:17:02;;;;;;;19.05;11.15;;;;;;;-2.16;100.00;102129.80;1789444;77;21159;-84
2022/02/27 05:19:31;;;;;;;16.35;10.25;;;;;;;-2.09;100.00;102123.86;1799690;78;20922;-84
2022/02/27 05:21:58;;;;;;;18.95;11.43;;;;;;;-2.04;100.00;102129.81;1793414;77;21036;-84
2022/02/27 05:24:25;;;;;;;16.77;10.98;;;;;;;-2.00;100.00;102125.59;1775771;79;21336;-83
2022/02/27 05:26:52;;;;;;;18.92;10.72;;;;;;;-1.95;100.00;102128.99;1775154;79;21038;-82
2022/02/27 05:29:20;;;;;;;17.85;11.20;;;;;;;-1.92;100.00;102122.19;1807584;77;21578;-84
2022/02/27 05:31:47;;;;;;;17.40;11.57;;;;;;;-1.86;100.00;102123.90;1776659;79;21118;-84
2022/02/27 05:34:14;;;;;;;23.15;12.47;;;;;;;-1.81;100.00;102130.29;1774544;79;21598;-84
2022/02/27 05:36:41;;;;;;;19.32;11.78;;;;;;;-1.77;100.00;102133.26;1778740;79;21017;-83
2022/02/27 05:39:08;;;;;;;21.20;12.13;;;;;;;-1.75;100.00;102130.29;1808453;77;21518;-85
2022/02/27 05:41:36;;;;;;;23.18;12.30;;;;;;;-1.72;100.00;102123.88;1779075;79;21004;-85
2022/02/27 05:44:03;;;;;;;21.15;12.68;;;;;;;-1.70;100.00;102126.02;1775798;79;21555;-83
2022/02/27 05:46:30;;;;;;;19.05;12.05;;;;;;;-1.67;100.00;102132.42;1775115;79;21428;-85
2022/02/27 05:48:57;;;;;;;20.70;12.73;;;;;;;-1.65;100.00;102137.12;1775233;78;21703;-84
2022/02/27 05:51:24;;;;;;;22.80;13.32;;;;;;;-1.64;100.00;102134.95;1809616;77;21140;-83
2022/02/27 05:53:55;;;;;;;20.25;12.47;;;;;;;-1.60;100.00;102138.36;1778879;77;21080;-85
2022/02/27 05:56:24;;;;;;;16.65;10.08;;;;;;;-1.59;100.00;102136.23;1807185;78;20962;-83
2022/02/27 05:58:52;;;;;;;21.30;12.58;;;;;;;-1.55;100.00;102146.03;1777341;79;20983;-83
2022/02/27 06:01:20;;;;;;;20.60;12.45;;;;;;;-1.52;100.00;102154.55;1783723;77;21034;-78
2022/02/27 06:03:47;;;;;;;18.75;10.90;;;;;;;-1.50;100.00;102146.91;1811250;79;21035;-78
2022/02/27 06:06:16;;;;;;;24.60;11.55;;;;;;;-1.45;100.00;102150.30;1807651;79;21502;-79
2022/02/27 06:08:43;;;;;;;22.40;10.72;;;;;;;-1.31;100.00;102155.41;1777705;79;21011;-80
2022/02/27 06:11:11;;;;;;;20.55;10.38;;;;;;;-1.21;100.00;102155.83;1767739;79;21452;-83
2022/02/27 06:13:38;;;;;;;25.08;10.72;;;;;;;-1.15;100.00;102160.93;1777890;77;21510;-80
2022/02/27 06:16:05;;;;;;;33.45;11.75;;;;;;;-1.08;100.00;102160.47;1801339;79;21906;-81
2022/02/27 06:18:35;;;;;;;14.78;10.38;;;;;;;-0.96;100.00;102159.59;1800436;77;21544;-80
2022/02/27 06:21:04;;;;;;;17.27;9.68;;;;;;;-0.78;100.00;102166.40;1799608;77;21516;-79
2022/02/27 06:23:33;;;;;;;16.65;10.45;;;;;;;-0.67;100.00;102165.92;1799554;77;21095;-82
2022/02/27 06:26:00;;;;;;;18.15;10.45;;;;;;;-0.58;100.00;102165.47;1813064;77;21021;-81
2022/02/27 06:28:28;;;;;;;16.60;10.18;;;;;;;-0.52;100.00;102166.75;1809644;79;21161;-81
2022/02/27 06:30:55;;;;;;;13.43;8.85;;;;;;;-0.41;100.00;102163.70;1811176;79;21151;-82
2022/02/27 06:33:22;;;;;;;19.12;9.50;;;;;;;-0.31;100.00;102170.89;1792287;78;21145;-83
2022/02/27 06:35:49;;;;;;;16.00;8.85;;;;;;;-0.25;100.00;102164.91;1788683;78;21012;-83
2022/02/27 06:38:17;;;;;;;13.30;8.68;;;;;;;-0.19;100.00;102163.17;1786380;79;21510;-83
2022/02/27 06:40:45;;;;;;;12.82;8.55;;;;;;;-0.13;100.00;102168.70;1757842;78;21082;-87
2022/02/27 06:43:12;;;;;;;23.38;9.18;;;;;;;-0.09;100.00;102173.38;1786183;80;21060;-87
2022/02/27 06:45:40;;;;;;;12.93;8.05;;;;;;;-0.03;100.00;102172.05;1767361;80;21048;-92
2022/02/27 06:48:08;;;;;;;13.43;8.58;;;;;;;0.06;100.00;102173.69;1787949;78;21068;-86
2022/02/27 06:50:36;;;;;;;14.47;8.40;;;;;;;0.13;100.00;102172.37;1761499;80;21527;-83
2022/02/27 06:53:03;;;;;;;13.10;8.33;;;;;;;0.23;100.00;102173.16;1761326;80;21105;-82
2022/02/27 06:55:33;;;;;;;11.88;6.55;;;;;;;0.33;100.00;102173.09;1792326;78;21009;-88
2022/02/27 06:58:01;;;;;;;14.38;8.03;;;;;;;0.40;100.00;102173.47;1765948;78;21538;-81
2022/02/27 07:00:29;;;;;;;12.50;7.78;;;;;;;0.50;100.00;102171.27;1769226;78;21060;-84
2022/02/27 07:02:58;;;;;;;14.63;8.15;;;;;;;0.59;100.00;102175.03;1794981;78;21028;-82
2022/02/27 07:05:28;;;;;;;12.10;6.83;;;;;;;0.70;100.00;102171.51;1774466;78;21064;-83
2022/02/27 07:07:55;;;;;;;10.95;6.33;;;;;;;0.82;100.00;102175.67;1773124;78;21506;-80
2022/02/27 07:10:23;;;;;;;12.60;7.20;;;;;;;0.89;100.00;102182.45;1785593;78;21561;-82
2022/02/27 07:12:53;;;;;;;9.85;7.30;;;;;;;0.94;100.00;102183.27;1782806;78;21100;-81
2022/02/27 07:15:20;;;;;;;12.05;7.60;;;;;;;1.05;100.00;102180.59;1697931;81;21076;-81
2022/02/27 07:17:47;;;;;;;14.20;7.97;;;;;;;1.15;100.00;102182.20;1704539;81;21163;-81
2022/02/27 07:20:15;;;;;;;11.68;6.05;;;;;;;1.23;100.00;102184.26;1737181;80;21549;-81
2022/02/27 07:22:42;;;;;;;8.40;6.35;;;;;;;1.28;100.00;102173.95;1745395;80;21076;-83
2022/02/27 07:25:11;;;;;;;9.23;5.62;;;;;;;1.36;100.00;102184.95;1754138;80;21098;-82
2022/02/27 07:27:38;;;;;;;11.50;6.37;;;;;;;1.41;100.00;102182.33;1694427;81;21068;-82
2022/02/27 07:30:07;;;;;;;12.25;6.30;;;;;;;1.46;100.00;102180.99;1729010;80;21485;-82
2022/02/27 07:32:35;;;;;;;12.35;7.00;;;;;;;1.53;100.00;102187.34;1762382;78;22313;-84
2022/02/27 07:35:02;;;;;;;11.03;6.85;;;;;;;1.59;100.00;102183.85;1802046;77;21001;-84
2022/02/27 07:37:56;;;;;;;9.98;5.50;;;;;;;1.66;100.00;102175.61;1804110;77;21088;-81
2022/02/27 07:40:24;;;;;;;9.85;5.92;;;;;;;1.76;100.00;102180.22;1805450;77;21070;-80
2022/02/27 07:42:51;;;;;;;13.13;7.15;;;;;;;1.82;100.00;102174.55;1775678;79;21560;-86
2022/02/27 07:45:21;;;;;;;11.22;6.95;;;;;;;1.89;100.00;102171.02;1811786;77;21029;-81
2022/02/27 07:47:48;;;;;;;9.05;6.10;;;;;;;1.99;100.00;102174.75;1817881;77;21487;-82
2022/02/27 07:50:16;;;;;;;10.98;6.28;;;;;;;2.11;100.00;102175.87;1749607;79;21093;-80
2022/02/27 07:52:44;;;;;;;9.88;6.17;;;;;;;2.21;100.00;102165.84;1760707;77;20990;-81
2022/02/27 07:55:11;;;;;;;7.85;5.95;;;;;;;2.29;100.00;102166.17;1785111;77;21061;-82
2022/02/27 07:57:38;;;;;;;9.95;6.28;;;;;;;2.42;100.00;102172.84;1811337;77;21065;-82
2022/02/27 08:00:07;;;;;;;8.10;5.75;;;;;;;2.50;100.00;102181.28;1748444;79;21060;-82
2022/02/27 08:02:36;;;;;;;9.83;6.10;;;;;;;2.59;100.00;102166.56;1795875;77;21042;-81
2022/02/27 08:05:04;;;;;;;10.48;6.03;;;;;;;2.70;100.00;102170.23;1804128;77;21543;-82
2022/02/27 08:07:30;;;;;;;18.27;11.20;;;;;;;2.97;100.00;102163.30;1830199;77;21152;-83
2022/02/27 08:09:57;;;;;;;9.23;6.20;;;;;;;2.97;100.00;102163.30;1805674;78;21129;-82
2022/02/27 08:12:24;;;;;;;12.23;6.45;;;;;;;3.07;100.00;102156.28;1766257;79;21027;-83
2022/02/27 08:14:53;;;;;;;7.97;5.17;;;;;;;3.21;100.00;102162.88;1770001;79;21672;-82
2022/02/27 08:17:20;;;;;;;7.05;4.37;;;;;;;3.31;100.00;102156.68;1785156;79;21061;-84
2022/02/27 08:19:49;;;;;;;5.80;3.90;;;;;;;3.35;100.00;102142.02;1804481;79;21510;-88
2022/02/27 08:22:17;;;;;;;10.43;6.12;;;;;;;3.35;100.00;102157.46;1780323;79;21062;-90
2022/02/27 08:24:45;;;;;;;9.00;6.03;;;;;;;3.35;100.00;102142.84;1752463;77;21105;-84
2022/02/27 08:27:12;;;;;;;10.08;6.65;;;;;;;3.40;100.00;102150.06;1807282;77;21707;-84
2022/02/27 08:29:39;;;;;;;11.80;7.40;;;;;;;3.47;100.00;102146.48;1786767;79;21004;-85
2022/02/27 08:32:07;;;;;;;6.97;4.92;;;;;;;3.55;100.00;102151.91;1777734;78;21665;-83
2022/02/27 08:34:34;;;;;;;8.25;5.03;;;;;;;3.63;100.00;102147.44;1790823;78;21016;-84
2022/02/27 08:37:03;;;;;;;10.00;5.60;;;;;;;3.65;100.00;102146.94;1786051;79;21044;-83
2022/02/27 08:39:31;;;;;;;7.70;5.75;;;;;;;3.71;100.00;102148.13;1785210;78;21039;-82
2022/02/27 08:41:57;;;;;;;7.83;5.28;;;;;;;3.78;100.00;102149.68;1773419;77;21071;-81
2022/02/27 08:44:24;;;;;;;8.40;5.50;;;;;;;3.87;100.00;102152.94;1765469;80;22006;-82
2022/02/27 08:46:51;;;;;;;6.85;4.80;;;;;;;3.92;100.00;102160.98;1756418;80;22038;-86
2022/02/27 08:49:19;;;;;;;10.43;5.45;;;;;;;3.91;100.00;102136.08;1756151;81;21115;-85
2022/02/27 08:51:51;;;;;;;6.58;4.50;;;;;;;3.95;100.00;102144.13;1756402;80;21139;-81
2022/02/27 08:54:18;;;;;;;5.00;4.37;;;;;;;4.05;100.00;102143.47;1731052;81;21116;-81
2022/02/27 08:56:45;;;;;;;5.85;4.55;;;;;;;4.12;100.00;102141.61;1761481;80;21895;-82
2022/02/27 08:59:12;;;;;;;8.43;4.80;;;;;;;4.04;100.00;102144.38;1791654;80;21036;-82
2022/02/27 09:01:39;;;;;;;6.72;5.03;;;;;;;3.89;100.00;102142.13;1783566;78;21073;-83
2022/02/27 09:04:06;;;;;;;8.63;4.17;;;;;;;3.81;100.00;102146.61;1790995;78;21076;-81
2022/02/27 09:06:33;;;;;;;7.10;3.95;;;;;;;3.80;100.00;102156.08;1756424;80;21056;-80
2022/02/27 09:09:01;;;;;;;5.28;4.15;;;;;;;3.79;100.00;102147.94;1760677;80;21186;-81
2022/02/27 09:11:28;;;;;;;6.30;4.95;;;;;;;3.83;100.00;102144.85;1731120;81;21545;-81
2022/02/27 09:13:55;;;;;;;6.58;4.17;;;;;;;3.91;100.00;102146.39;1760834;81;21584;-81
2022/02/27 09:16:22;;;;;;;8.13;5.00;;;;;;;4.06;100.00;102147.75;1760629;80;21073;-80
2022/02/27 09:18:49;;;;;;;6.12;4.42;;;;;;;4.17;100.00;102139.77;1730795;81;21028;-80
2022/02/27 09:21:16;;;;;;;5.53;4.10;;;;;;;4.31;100.00;102139.44;1761431;81;21115;-82
2022/02/27 09:23:43;;;;;;;9.85;3.90;;;;;;;4.45;100.00;102137.81;1745651;80;21711;-80
2022/02/27 09:26:10;;;;;;;4.80;3.80;;;;;;;4.48;100.00;102145.48;1786277;78;21005;-80
2022/02/27 09:28:37;;;;;;;7.30;4.90;;;;;;;4.40;100.00;102142.25;1781807;79;21108;-82
2022/02/27 09:31:04;;;;;;;6.25;5.10;;;;;;;4.23;100.00;102143.50;1756479;80;21573;-81
2022/02/27 09:33:34;;;;;;;6.22;4.25;;;;;;;4.12;100.00;102143.36;1786760;78;21125;-82
2022/02/27 09:36:00;;;;;;;4.58;3.77;;;;;;;4.07;100.00;102151.19;1760740;80;21009;-81
2022/02/27 09:38:27;;;;;;;7.95;3.50;;;;;;;3.99;100.00;102134.60;1760902;80;21119;-80
2022/02/27 09:40:54;;;;;;;6.12;3.67;;;;;;;3.87;100.00;102150.36;1785101;78;21103;-81
2022/02/27 09:43:22;;;;;;;6.42;3.80;;;;;;;3.74;100.00;102138.19;1791952;78;21506;-81
2022/02/27 09:45:50;;;;;;;3.75;2.95;;;;;;;3.65;100.00;102136.64;1784939;78;21079;-81
2022/02/27 09:48:19;;;;;;;5.53;3.60;;;;;;;3.61;100.00;102129.88;1760819;78;21044;-80
2022/02/27 09:50:49;;;;;;;7.78;4.28;;;;;;;3.62;100.00;102130.28;1784875;78;21020;-80
2022/02/27 09:53:17;;;;;;;4.75;3.22;;;;;;;3.67;100.00;102128.44;1777740;78;21022;-85
2022/02/27 09:55:45;;;;;;;6.80;3.95;;;;;;;3.72;100.00;102127.92;1758369;80;21609;-81
2022/02/27 09:58:12;;;;;;;7.53;4.20;;;;;;;3.81;100.00;102125.98;1792648;79;21170;-80
2022/02/27 10:00:39;;;;;;;6.03;3.75;;;;;;;3.89;100.00;102123.66;1758996;80;21596;-81
2022/02/27 10:03:11;;;;;;;3.72;3.22;;;;;;;3.92;100.00;102124.89;1788274;80;21040;-81
2022/02/27 10:05:43;;;;;;;8.10;4.45;;;;;;;3.90;96.60;102135.67;1761747;80;21119;-80
2022/02/27 10:08:13;;;;;;;10.20;4.70;;;;;;;3.84;100.00;102134.95;1792571;80;21549;-83
2022/02/27 10:10:56;;;;;;;9.13;4.58;;;;;;;3.82;100.00;102123.40;1792730;80;21124;-80
2022/02/27 10:13:44;;;;;;;8.28;4.62;;;;;;;3.78;100.00;102134.22;1736073;80;21033;-83
2022/02/27 10:16:22;;;;;;;9.75;4.67;;;;;;;3.70;100.00;102137.83;1783883;78;21189;-83
2022/02/27 10:18:56;;;;;;;7.50;4.47;;;;;;;3.59;100.00;102131.20;1760882;80;21072;-82
2022/02/27 10:21:30;;;;;;;4.22;3.42;;;;;;;3.54;100.00;102126.57;1780813;78;21558;-81
2022/02/27 10:24:02;;;;;;;7.60;3.47;;;;;;;3.48;100.00;102130.12;1789165;78;21159;-81
2022/02/27 10:26:31;;;;;;;5.25;3.58;;;;;;;3.46;100.00;102123.31;1772756;80;21556;-81
2022/02/27 10:29:15;;;;;;;5.62;3.50;;;;;;;3.44;100.00;102125.92;1776974;78;21072;-86
2022/02/27 10:31:54;;;;;;;5.58;3.33;;;;;;;3.50;100.00;102120.22;1760467;80;21549;-82
2022/02/27 10:34:31;;;;;;;6.70;3.62;;;;;;;3.54;100.00;102120.12;1801678;77;20987;-81
2022/02/27 10:37:03;;;;;;;7.12;4.95;;;;;;;3.59;100.00;102120.03;1776907;79;21448;-82
2022/02/27 10:39:49;;;;;;;5.85;3.90;;;;;;;3.61;100.00;102113.95;1813407;78;20951;-82
2022/02/27 10:42:25;;;;;;;5.37;3.98;;;;;;;3.62;100.00;102120.81;1778872;79;20967;-84
2022/02/27 10:44:57;;;;;;;7.97;4.75;;;;;;;3.63;100.00;102124.25;1796718;79;21518;-83
2022/02/27 10:47:29;;;;;;;6.72;4.22;;;;;;;3.69;100.00;102109.94;1781835;80;21002;-82
2022/02/27 10:49:59;;;;;;;6.92;3.65;;;;;;;3.74;100.00;102113.25;1811164;79;21111;-83
2022/02/27 10:52:31;;;;;;;9.67;5.27;;;;;;;3.78;97.56;102119.18;1805734;78;21555;-83
2022/02/27 10:55:07;;;;;;;4.40;2.90;;;;;;;3.82;98.18;102123.83;1742698;82;21053;-81
2022/02/27 10:57:41;;;;;;;5.00;3.02;;;;;;;3.86;89.84;102120.31;1808843;79;21566;-84
2022/02/27 11:00:22;;;;;;;5.78;3.33;;;;;;;3.84;86.57;102114.34;1777100;79;21018;-86
2022/02/27 11:02:57;;;;;;;7.72;3.27;;;;;;;3.84;91.44;102119.06;1772387;78;22272;-84
2022/02/27 11:05:37;;;;;;;6.55;3.00;;;;;;;3.88;87.66;102108.25;1803607;79;20974;-80
2022/02/27 11:08:14;;;;;;;3.87;2.65;;;;;;;3.88;88.00;102111.66;1807332;78;21027;-82
2022/02/27 11:11:04;;;;;;;3.20;2.80;;;;;;;3.92;85.36;102105.56;1775825;80;21040;-86
2022/02/27 11:13:35;;;;;;;3.77;2.47;;;;;;;4.01;83.01;102105.78;1776292;80;21058;-84
2022/02/27 11:16:03;;;;;;;4.85;2.42;;;;;;;4.09;83.90;102100.00;1797273;78;21805;-83
2022/02/27 11:18:33;;;;;;;3.67;2.52;;;;;;;4.12;82.91;102113.70;1801467;78;20990;-81